Terminal Aerodrome Forecast
Issued by NWS

Home | Current Version | Previous Version | Text Only | Print | Product List | Glossary Off
Versions: 1 2 3 4 5 6 7 8 9 10 11 12 13 14 15 16 17 18 19 20 21 22 23 24

600
FTUS43 KBIS 041735
TAFMOT
TAF
KMOT 041735Z 0418/0518 28011KT P6SM SCT015
     FM041830 27010KT P6SM SKC
     FM050000 25011KT P6SM BKN100
     FM050600 16007KT P6SM VCSH OVC040
     FM051000 19007KT P6SM VCSH BKN010
     FM051200 24011G20KT P6SM BKN008=

USA.gov is the U.S. government's official web portal to all federal, state and local government web resources and services.